createdAt,value
2023-03-19T06:02:57.624Z,93.63
2023-03-19T06:05:27.802Z,93.27
2023-03-19T06:08:04.593Z,92.86
2023-03-19T06:10:34.824Z,93.18
2023-03-19T06:13:11.529Z,93.62
2023-03-19T06:15:42.090Z,93.75
2023-03-19T06:18:21.577Z,93.57
2023-03-19T06:20:51.808Z,93.49
2023-03-19T06:23:28.583Z,93.66
2023-03-19T06:25:58.699Z,93.72
2023-03-19T06:28:35.619Z,92.96
2023-03-19T06:31:05.679Z,93.58
2023-03-19T06:33:44.575Z,93.42
2023-03-19T06:36:15.172Z,93.03
2023-03-19T06:38:51.601Z,93.70
2023-03-19T06:41:21.947Z,93.49
2023-03-19T06:43:58.640Z,93.33
2023-03-19T06:46:28.780Z,93.66
2023-03-19T06:49:07.579Z,93.52
2023-03-19T06:51:44.618Z,93.44
2023-03-19T06:54:14.676Z,93.53
2023-03-19T06:56:51.615Z,93.16
2023-03-19T06:59:22.184Z,93.73
2023-03-19T07:01:58.664Z,93.49
2023-03-19T07:04:31.422Z,93.40
2023-03-19T07:07:08.624Z,93.02
2023-03-19T07:09:38.688Z,92.97
2023-03-19T07:12:16.615Z,93.33
2023-03-19T07:14:46.563Z,93.52
2023-03-19T07:17:22.677Z,92.55
2023-03-19T07:19:55.575Z,93.57
2023-03-19T07:22:32.666Z,93.79
2023-03-19T07:25:09.671Z,93.93
2023-03-19T07:27:39.723Z,93.73
2023-03-19T07:30:19.700Z,92.63
2023-03-19T07:32:56.870Z,93.90
2023-03-19T07:35:29.620Z,93.42
2023-03-19T07:38:05.658Z,93.82
2023-03-19T07:40:51.330Z,93.72
2023-03-19T07:43:29.339Z,93.54
2023-03-19T07:46:05.808Z,93.89
2023-03-19T07:48:35.933Z,93.47
2023-03-19T07:51:15.732Z,93.48
2023-03-19T07:53:45.712Z,93.57
2023-03-19T07:56:22.736Z,93.10
2023-03-19T07:58:52.791Z,93.74
2023-03-19T08:01:29.717Z,93.24
2023-03-19T08:04:06.884Z,94.04
2023-03-19T08:06:40.140Z,93.41
2023-03-19T08:09:16.718Z,92.97
2023-03-19T08:11:47.243Z,93.97
2023-03-19T08:14:25.764Z,93.38
2023-03-19T08:16:55.999Z,93.87
2023-03-19T08:19:32.725Z,92.97
2023-03-19T08:22:05.492Z,92.74
2023-03-19T08:24:41.826Z,92.57
2023-03-19T08:27:12.373Z,92.72
2023-03-19T08:29:48.785Z,92.47
2023-03-19T08:32:25.748Z,92.98
2023-03-19T08:34:55.907Z,92.46
2023-03-19T08:37:35.744Z,92.46
2023-03-19T08:40:06.310Z,93.12
2023-03-19T08:42:46.847Z,92.30
2023-03-19T08:45:19.006Z,92.16
2023-03-19T08:47:55.763Z,92.57
2023-03-19T08:50:25.882Z,92.50
2023-03-19T08:53:05.762Z,92.54
2023-03-19T08:55:35.888Z,92.32
2023-03-19T08:58:12.797Z,92.40
2023-03-19T09:00:42.859Z,92.00
2023-03-19T09:03:19.825Z,92.31
2023-03-19T09:05:56.745Z,92.07
2023-03-19T09:08:29.470Z,91.79
2023-03-19T09:11:06.795Z,91.92
2023-03-19T09:13:38.337Z,91.60
2023-03-19T09:16:15.922Z,91.58
2023-03-19T09:18:46.128Z,91.63
2023-03-19T09:21:22.778Z,90.81
2023-03-19T09:23:55.643Z,91.39
2023-03-19T09:26:32.841Z,90.98
2023-03-19T09:29:03.649Z,90.65
2023-03-19T09:31:39.935Z,90.81
2023-03-19T09:34:10.465Z,91.11
2023-03-19T09:36:48.141Z,90.82
2023-03-19T09:39:26.813Z,90.14
2023-03-19T09:42:22.631Z,90.19
2023-03-19T09:45:01.847Z,90.19
2023-03-19T09:47:42.120Z,90.91
2023-03-19T09:50:18.722Z,90.06
2023-03-19T09:52:57.815Z,90.04
2023-03-19T09:55:44.197Z,90.21
2023-03-19T09:58:25.886Z,89.72
2023-03-19T10:01:03.817Z,90.25
2023-03-19T10:03:53.922Z,89.46
2023-03-19T10:06:38.847Z,89.38
2023-03-19T10:09:36.550Z,89.06
2023-03-19T10:12:40.834Z,89.24
2023-03-19T10:15:22.671Z,89.75
2023-03-19T10:18:09.948Z,88.98
2023-03-19T10:20:51.002Z,88.64
2023-03-19T10:23:43.925Z,88.24
2023-03-19T10:26:18.509Z,88.51
2023-03-19T10:29:08.061Z,88.06
2023-03-19T10:31:57.017Z,88.19
2023-03-19T10:34:37.865Z,88.01
2023-03-19T10:37:22.938Z,88.18
2023-03-19T10:39:55.094Z,87.53
2023-03-19T10:43:01.927Z,86.92
2023-03-19T10:45:44.064Z,87.34
2023-03-19T10:48:20.834Z,87.37
2023-03-19T10:51:02.940Z,86.97
2023-03-19T10:53:42.983Z,87.82
2023-03-19T10:56:23.206Z,87.38
2023-03-19T10:59:09.932Z,87.32
2023-03-19T11:01:44.468Z,86.40
2023-03-19T11:04:25.982Z,85.74
2023-03-19T11:07:03.936Z,86.42
2023-03-19T11:09:37.896Z,86.48
2023-03-19T11:12:29.950Z,85.93
2023-03-19T11:15:03.697Z,85.82
2023-03-19T11:17:49.969Z,85.46
2023-03-19T11:20:32.000Z,85.28
2023-03-19T11:23:10.997Z,86.36
2023-03-19T11:25:44.191Z,85.77
2023-03-19T11:28:26.137Z,85.78
2023-03-19T11:31:05.301Z,85.26
2023-03-19T11:34:17.954Z,84.91
2023-03-19T11:36:59.761Z,85.24
2023-03-19T11:39:43.958Z,85.81
2023-03-19T11:42:47.250Z,84.90
2023-03-19T11:45:41.656Z,85.13
2023-03-19T11:48:39.155Z,84.70
2023-03-19T11:51:25.975Z,84.44
2023-03-19T11:54:07.834Z,85.13
2023-03-19T11:56:54.159Z,84.36
2023-03-19T11:59:58.069Z,84.26
2023-03-19T12:02:58.887Z,83.93
2023-03-19T12:05:43.034Z,83.00
2023-03-19T12:08:32.763Z,83.57
2023-03-19T12:11:23.042Z,83.30
2023-03-19T12:14:30.050Z,83.98
2023-03-19T12:17:26.071Z,84.09
2023-03-19T12:20:26.464Z,83.12
2023-03-19T12:23:37.071Z,83.08
2023-03-19T12:26:16.021Z,83.31
2023-03-19T12:28:57.058Z,82.59
2023-03-19T12:32:24.076Z,83.22
2023-03-19T12:34:58.577Z,82.73
2023-03-19T12:37:42.085Z,81.92
2023-03-19T12:40:30.958Z,82.03
2023-03-19T12:43:12.036Z,81.91
2023-03-19T12:45:46.759Z,81.13
2023-03-19T12:48:31.101Z,81.00
2023-03-19T12:51:08.368Z,79.99
2023-03-19T12:53:57.058Z,80.16
2023-03-19T12:56:46.110Z,79.82
2023-03-19T12:59:27.640Z,79.15
2023-03-19T13:02:12.171Z,78.92
2023-03-19T13:04:51.001Z,77.23
2023-03-19T13:07:33.122Z,76.95
2023-03-19T13:10:11.070Z,76.44
2023-03-19T13:12:51.136Z,76.36
2023-03-19T13:15:30.701Z,75.72
2023-03-19T13:18:25.189Z,75.26
2023-03-19T13:21:14.727Z,74.62
2023-03-19T13:23:55.117Z,74.71
2023-03-19T13:26:25.657Z,74.31
2023-03-19T13:29:12.095Z,74.00
2023-03-19T13:31:42.208Z,74.11
2023-03-19T13:34:34.171Z,73.10
2023-03-19T13:37:11.235Z,73.29
2023-03-19T13:39:49.182Z,73.36
2023-03-19T13:42:42.695Z,72.52
2023-03-19T13:45:45.140Z,72.35
2023-03-19T13:48:41.683Z,72.28
2023-03-19T13:51:39.136Z,71.62
2023-03-19T13:54:20.110Z,71.85
2023-03-19T13:57:26.180Z,71.75
2023-03-19T14:00:03.160Z,72.45
